createdAt,value
2023-04-18T00:01:56.209Z,9.32
2023-04-18T00:04:23.614Z,9.35
2023-04-18T00:06:51.057Z,9.95
2023-04-18T00:09:18.295Z,8.70
2023-04-18T00:11:45.782Z,10.02
2023-04-18T00:14:14.074Z,10.05
2023-04-18T00:16:41.383Z,9.68
2023-04-18T00:19:09.732Z,9.98
2023-04-18T00:21:37.826Z,9.43
2023-04-18T00:24:05.411Z,9.48
2023-04-18T00:26:32.737Z,10.68
2023-04-18T00:28:59.831Z,10.05
2023-04-18T00:31:27.121Z,9.50
2023-04-18T00:33:53.876Z,10.18
2023-04-18T00:36:21.124Z,9.25
2023-04-18T00:38:47.981Z,9.93
2023-04-18T00:41:15.787Z,9.38
2023-04-18T00:43:42.995Z,10.70
2023-04-18T00:46:11.412Z,9.43
2023-04-18T00:48:39.681Z,10.02
2023-04-18T00:51:08.170Z,9.55
2023-04-18T00:53:35.427Z,10.45
2023-04-18T00:56:03.028Z,9.82
2023-04-18T00:58:30.469Z,10.32
2023-04-18T01:00:57.673Z,11.13
2023-04-18T01:03:26.550Z,11.18
2023-04-18T01:05:54.824Z,10.43
2023-04-18T01:08:22.209Z,11.23
2023-04-18T01:10:50.487Z,9.93
2023-04-18T01:13:20.053Z,12.18
2023-04-18T01:15:50.324Z,11.75
2023-04-18T01:18:18.404Z,11.65
2023-04-18T01:20:48.802Z,11.45
2023-04-18T01:23:17.605Z,12.10
2023-04-18T01:25:46.024Z,11.48
2023-04-18T01:28:15.284Z,11.48
2023-04-18T01:30:42.616Z,12.57
2023-04-18T01:33:09.969Z,14.77
2023-04-18T01:35:37.198Z,12.30
2023-04-18T01:38:04.430Z,12.38
2023-04-18T01:40:32.012Z,13.05
2023-04-18T01:42:59.230Z,12.93
2023-04-18T01:45:26.587Z,13.07
2023-04-18T01:47:53.863Z,13.57
2023-04-18T01:50:21.368Z,14.50
2023-04-18T01:52:48.168Z,14.57
2023-04-18T01:55:15.534Z,14.80
2023-04-18T01:57:42.768Z,15.35
2023-04-18T02:00:10.430Z,15.82
2023-04-18T02:02:37.951Z,15.45
2023-04-18T02:05:05.512Z,14.43
2023-04-18T02:07:32.752Z,15.57
2023-04-18T02:09:59.861Z,16.75
2023-04-18T02:12:27.154Z,15.70
2023-04-18T02:14:54.503Z,17.83
2023-04-18T02:17:24.004Z,15.48
2023-04-18T02:19:51.541Z,17.63
2023-04-18T02:22:19.148Z,16.40
2023-04-18T02:24:46.479Z,17.65
2023-04-18T02:27:13.704Z,17.63
2023-04-18T02:29:41.066Z,16.92
2023-04-18T02:32:08.642Z,16.98
2023-04-18T02:34:36.634Z,17.63
2023-04-18T02:37:04.618Z,18.90
2023-04-18T02:39:32.040Z,17.52
2023-04-18T02:41:59.511Z,18.17
2023-04-18T02:44:26.764Z,18.05
2023-04-18T02:46:54.014Z,17.15
2023-04-18T02:49:21.182Z,17.55
2023-04-18T02:51:48.402Z,18.42
2023-04-18T02:54:15.793Z,17.33
2023-04-18T02:56:43.481Z,17.13
2023-04-18T02:59:11.128Z,17.50
2023-04-18T03:01:38.420Z,16.70
2023-04-18T03:04:05.541Z,17.27
2023-04-18T03:06:32.716Z,17.75
2023-04-18T03:09:00.229Z,17.17
2023-04-18T03:11:27.357Z,17.55
2023-04-18T03:13:55.519Z,17.35
2023-04-18T03:16:22.905Z,17.55
2023-04-18T03:18:50.432Z,17.65
2023-04-18T03:21:17.579Z,17.17
2023-04-18T03:23:44.797Z,16.90
2023-04-18T03:26:14.343Z,17.10
2023-04-18T03:28:41.682Z,17.10
2023-04-18T03:31:08.884Z,17.52
2023-04-18T03:33:36.231Z,17.23
2023-04-18T03:36:03.275Z,18.17
2023-04-18T03:38:31.409Z,17.17
2023-04-18T03:40:58.178Z,17.58
2023-04-18T03:43:25.397Z,17.15
2023-04-18T03:45:52.741Z,17.38
2023-04-18T03:48:19.985Z,17.25
2023-04-18T03:50:46.730Z,18.27
2023-04-18T03:53:14.825Z,18.20
2023-04-18T03:55:42.076Z,17.77
2023-04-18T03:58:08.774Z,18.30
2023-04-18T04:00:36.341Z,19.20
2023-04-18T04:03:03.698Z,18.73
2023-04-18T04:05:31.296Z,18.65
2023-04-18T04:07:58.475Z,19.80
2023-04-18T04:10:25.423Z,19.65
2023-04-18T04:12:52.523Z,17.80
2023-04-18T04:15:19.828Z,18.90
2023-04-18T04:17:46.936Z,18.85
2023-04-18T04:20:14.186Z,19.92
2023-04-18T04:22:41.983Z,19.52
2023-04-18T04:25:09.432Z,24.45
2023-04-18T04:27:37.249Z,19.02
2023-04-18T04:30:05.624Z,20.52
2023-04-18T04:32:33.344Z,18.75
2023-04-18T04:35:00.312Z,19.45
2023-04-18T04:37:28.152Z,18.58
2023-04-18T04:39:56.903Z,21.33
2023-04-18T04:42:25.746Z,20.00
2023-04-18T04:44:54.138Z,23.65
2023-04-18T04:47:21.472Z,21.98
2023-04-18T04:49:48.128Z,25.02
2023-04-18T04:52:15.318Z,23.23
2023-04-18T04:54:43.812Z,22.48
2023-04-18T04:57:11.011Z,22.75
2023-04-18T04:59:38.354Z,21.65
2023-04-18T05:02:05.198Z,21.98
2023-04-18T05:04:32.709Z,23.85
2023-04-18T05:07:00.285Z,22.98
2023-04-18T05:09:27.032Z,25.38
2023-04-18T05:11:54.190Z,24.10
2023-04-18T05:14:21.294Z,24.10
2023-04-18T05:16:48.326Z,24.00
2023-04-18T05:19:15.672Z,23.60
2023-04-18T05:21:42.848Z,23.27
2023-04-18T05:24:09.760Z,23.67
2023-04-18T05:26:36.927Z,21.25
2023-04-18T05:29:03.834Z,21.52
2023-04-18T05:31:31.322Z,22.75
2023-04-18T05:33:58.149Z,21.45
2023-04-18T05:36:25.719Z,22.38
2023-04-18T05:38:53.161Z,20.67
2023-04-18T05:41:19.989Z,21.00
2023-04-18T05:44:01.846Z,19.95
2023-04-18T05:46:31.461Z,20.67
2023-04-18T05:49:01.555Z,20.38
2023-04-18T05:51:28.817Z,20.08
2023-04-18T05:53:55.658Z,20.42
2023-04-18T05:56:25.788Z,22.58
2023-04-18T05:59:00.641Z,22.17
2023-04-18T06:01:27.814Z,21.98
2023-04-18T06:03:55.426Z,21.65
2023-04-18T06:06:22.757Z,22.27
2023-04-18T06:08:49.502Z,22.85
2023-04-18T06:11:17.003Z,22.33
2023-04-18T06:13:44.261Z,23.80
2023-04-18T06:16:11.678Z,24.00
2023-04-18T06:18:38.566Z,25.58
2023-04-18T06:21:05.573Z,25.83
2023-04-18T06:23:33.014Z,25.77
2023-04-18T06:26:00.641Z,26.90
2023-04-18T06:28:27.347Z,26.92
2023-04-18T06:30:54.243Z,28.08
2023-04-18T06:33:22.005Z,26.02
2023-04-18T06:35:49.301Z,27.88
2023-04-18T06:38:16.117Z,28.50
2023-04-18T06:40:42.927Z,28.10
2023-04-18T06:43:09.712Z,26.73
2023-04-18T06:45:37.038Z,28.13
2023-04-18T06:48:05.168Z,28.95
2023-04-18T06:50:32.691Z,28.30
2023-04-18T06:52:59.379Z,29.17
2023-04-18T06:55:26.932Z,27.85
2023-04-18T06:57:54.176Z,28.60
2023-04-18T07:00:21.783Z,27.88
2023-04-18T07:02:49.581Z,25.90
2023-04-18T07:05:16.474Z,27.33
2023-04-18T07:07:43.326Z,24.77
2023-04-18T07:10:11.709Z,24.92
2023-04-18T07:12:38.828Z,22.05
2023-04-18T07:15:06.601Z,21.58
2023-04-18T07:17:33.999Z,22.10
2023-04-18T07:20:01.138Z,23.65
2023-04-18T07:22:27.751Z,20.77
2023-04-18T07:24:54.485Z,22.13
2023-04-18T07:27:21.288Z,22.58
2023-04-18T07:29:48.260Z,22.75
2023-04-18T07:32:15.272Z,23.02
2023-04-18T07:34:43.004Z,22.27
2023-04-18T07:37:10.216Z,23.92
2023-04-18T07:39:37.063Z,24.48
2023-04-18T07:42:04.728Z,23.05
2023-04-18T07:44:32.031Z,22.92
2023-04-18T07:46:59.036Z,21.55
2023-04-18T07:49:25.868Z,31.95
2023-04-18T07:51:52.792Z,27.80
2023-04-18T07:54:20.496Z,24.98
2023-04-18T07:56:47.919Z,23.42
2023-04-18T07:59:15.867Z,20.30
2023-04-18T08:01:43.908Z,19.10
2023-04-18T08:04:11.447Z,17.35
2023-04-18T08:06:38.846Z,16.10
2023-04-18T08:09:06.539Z,16.00
2023-04-18T08:11:34.225Z,14.63
2023-04-18T08:14:01.900Z,15.85
2023-04-18T08:16:29.585Z,15.65
2023-04-18T08:18:56.400Z,15.52
2023-04-18T08:21:23.763Z,16.98
2023-04-18T08:23:50.664Z,16.65
2023-04-18T08:26:17.907Z,17.80
2023-04-18T08:28:46.578Z,16.58
2023-04-18T08:31:15.596Z,15.70
2023-04-18T08:33:43.061Z,17.90
2023-04-18T08:36:10.496Z,17.73
2023-04-18T08:38:37.267Z,17.05
2023-04-18T08:41:04.330Z,15.55
2023-04-18T08:43:31.504Z,14.88
2023-04-18T08:46:00.371Z,15.02
2023-04-18T08:48:31.022Z,13.75
2023-04-18T08:50:59.142Z,12.15
2023-04-18T08:53:27.548Z,13.07
2023-04-18T08:55:58.238Z,13.50
2023-04-18T08:58:27.685Z,14.20
2023-04-18T09:00:55.831Z,11.88
2023-04-18T09:03:42.703Z,12.57
2023-04-18T09:06:19.534Z,11.80
2023-04-18T09:08:59.350Z,12.65
2023-04-18T09:11:29.531Z,12.20
2023-04-18T09:13:59.231Z,14.77
2023-04-18T09:16:28.056Z,11.63
2023-04-18T09:19:18.888Z,11.40
2023-04-18T09:21:49.117Z,11.15
2023-04-18T09:24:18.488Z,11.75
2023-04-18T09:26:45.719Z,11.25
2023-04-18T09:29:13.758Z,11.40
2023-04-18T09:31:55.241Z,10.23
2023-04-18T09:34:26.663Z,10.80
2023-04-18T09:37:14.033Z,10.25
2023-04-18T09:39:43.124Z,11.18
2023-04-18T09:42:14.390Z,10.05
2023-04-18T09:45:00.202Z,10.13
2023-04-18T09:47:28.837Z,9.65
2023-04-18T09:49:56.221Z,10.13
2023-04-18T09:52:26.643Z,11.73
2023-04-18T09:55:00.326Z,10.48
2023-04-18T09:57:29.446Z,7.95
2023-04-18T10:00:17.899Z,9.10
2023-04-18T10:02:49.477Z,8.07
2023-04-18T10:05:19.548Z,8.25
2023-04-18T10:07:49.924Z,7.75
2023-04-18T10:10:17.723Z,7.38
2023-04-18T10:12:48.302Z,9.38
2023-04-18T10:15:17.378Z,14.27
2023-04-18T10:18:04.339Z,8.18
2023-04-18T10:20:34.869Z,8.70
2023-04-18T10:23:31.467Z,8.30
2023-04-18T10:26:05.400Z,8.55
2023-04-18T10:29:02.077Z,8.52
2023-04-18T10:31:30.130Z,8.10
2023-04-18T10:34:05.638Z,8.80
2023-04-18T10:36:33.993Z,7.90
2023-04-18T10:39:06.721Z,8.25
2023-04-18T10:41:34.886Z,9.33
2023-04-18T10:44:08.508Z,8.32
2023-04-18T10:46:41.254Z,7.68
2023-04-18T10:49:19.902Z,7.93
2023-04-18T10:51:51.785Z,8.45
2023-04-18T10:54:38.092Z,8.18
2023-04-18T10:57:08.105Z,8.25
2023-04-18T10:59:38.748Z,7.78
2023-04-18T11:02:27.100Z,7.75
2023-04-18T11:04:56.674Z,7.82
2023-04-18T11:07:36.899Z,7.35
2023-04-18T11:10:05.337Z,8.63
2023-04-18T11:12:34.701Z,8.13
2023-04-18T11:15:09.373Z,8.10
2023-04-18T11:17:38.848Z,11.98
2023-04-18T11:20:16.254Z,8.65
2023-04-18T11:22:52.342Z,11.88
2023-04-18T11:25:23.868Z,22.13
2023-04-18T11:27:57.571Z,12.10
2023-04-18T11:30:24.796Z,9.07
2023-04-18T11:32:52.006Z,13.07
2023-04-18T11:35:18.963Z,25.73
2023-04-18T11:37:46.362Z,11.55
2023-04-18T11:40:14.809Z,17.13
2023-04-18T11:42:42.126Z,13.43
2023-04-18T11:45:14.213Z,10.18
2023-04-18T11:47:43.549Z,5.13
2023-04-18T11:50:12.190Z,6.13
2023-04-18T11:52:41.967Z,7.53
2023-04-18T11:55:18.024Z,9.40
2023-04-18T11:57:55.350Z,5.57
2023-04-18T12:00:34.372Z,5.70
2023-04-18T12:03:06.098Z,6.63
2023-04-18T12:05:36.019Z,6.30
2023-04-18T12:08:12.137Z,6.03
2023-04-18T12:10:47.462Z,5.47
2023-04-18T12:13:14.996Z,5.20
2023-04-18T12:15:44.969Z,5.22
2023-04-18T12:18:14.647Z,5.13
2023-04-18T12:20:46.514Z,6.30
2023-04-18T12:23:40.323Z,5.25
2023-04-18T12:26:15.638Z,4.68
2023-04-18T12:28:46.065Z,4.18
2023-04-18T12:31:13.440Z,12.77
2023-04-18T12:33:40.677Z,5.10
2023-04-18T12:36:08.789Z,3.95
2023-04-18T12:38:36.631Z,4.07
2023-04-18T12:41:03.963Z,9.00
2023-04-18T12:43:31.141Z,4.72
2023-04-18T12:45:59.934Z,6.30
2023-04-18T12:48:26.842Z,11.20
2023-04-18T12:50:53.916Z,7.38
2023-04-18T12:53:21.359Z,8.57
2023-04-18T12:55:48.552Z,8.15
2023-04-18T12:58:19.076Z,6.47
2023-04-18T13:00:46.484Z,6.60
2023-04-18T13:03:14.203Z,8.20
2023-04-18T13:05:41.412Z,5.78
2023-04-18T13:08:16.732Z,5.15
2023-04-18T13:10:46.136Z,7.05
2023-04-18T13:13:13.720Z,6.80
2023-04-18T13:15:41.423Z,5.07
2023-04-18T13:18:08.385Z,5.78
2023-04-18T13:20:35.816Z,5.90
2023-04-18T13:23:03.607Z,5.75
2023-04-18T13:25:30.843Z,5.70
2023-04-18T13:27:58.880Z,7.15
2023-04-18T13:30:25.917Z,7.38
2023-04-18T13:32:53.318Z,13.68
2023-04-18T13:35:20.597Z,7.75
2023-04-18T13:37:47.358Z,8.07
2023-04-18T13:40:15.011Z,7.15
2023-04-18T13:42:41.810Z,6.47
2023-04-18T13:45:08.778Z,6.45
2023-04-18T13:47:36.049Z,7.55
2023-04-18T13:50:02.819Z,7.82
2023-04-18T13:52:30.018Z,8.18
2023-04-18T13:54:57.133Z,7.47
2023-04-18T13:57:23.916Z,6.90
2023-04-18T13:59:51.164Z,7.03
2023-04-18T14:02:18.171Z,6.75
2023-04-18T14:04:45.637Z,6.93
2023-04-18T14:07:12.801Z,6.65
2023-04-18T14:09:39.851Z,7.55
2023-04-18T14:12:07.516Z,7.88
2023-04-18T14:14:34.451Z,7.10
2023-04-18T14:17:01.732Z,6.65
2023-04-18T14:19:29.130Z,6.85
2023-04-18T14:21:55.914Z,6.63
2023-04-18T14:24:23.158Z,7.38
2023-04-18T14:26:49.777Z,6.72
2023-04-18T14:29:16.972Z,7.85
2023-04-18T14:31:44.667Z,9.10
2023-04-18T14:34:12.153Z,10.73
2023-04-18T14:36:39.442Z,8.93
2023-04-18T14:39:06.635Z,8.50
2023-04-18T14:41:33.957Z,8.50
2023-04-18T14:44:01.377Z,8.35
2023-04-18T14:46:28.638Z,9.32
2023-04-18T14:48:55.946Z,8.02
2023-04-18T14:51:24.284Z,8.80
2023-04-18T14:53:51.804Z,8.30
2023-04-18T14:56:21.552Z,8.15
2023-04-18T14:58:48.836Z,7.75
2023-04-18T15:01:17.615Z,8.23
2023-04-18T15:03:44.793Z,10.07
2023-04-18T15:06:12.264Z,12.48
2023-04-18T15:08:39.524Z,10.52
2023-04-18T15:11:09.934Z,10.70
2023-04-18T15:13:37.801Z,12.10
2023-04-18T15:16:04.681Z,75.93
2023-04-18T15:18:31.839Z,17.45
2023-04-18T15:21:02.125Z,9.60
2023-04-18T15:23:29.567Z,16.60
2023-04-18T15:25:57.079Z,25.48
2023-04-18T15:28:23.898Z,11.55
2023-04-18T15:30:51.211Z,8.63
2023-04-18T15:33:19.576Z,9.63
2023-04-18T15:35:48.133Z,17.95
2023-04-18T15:38:15.583Z,20.10
2023-04-18T15:40:43.687Z,12.40
2023-04-18T15:43:10.883Z,9.45
2023-04-18T15:45:38.291Z,12.05
2023-04-18T15:48:06.225Z,11.93
2023-04-18T15:50:34.250Z,9.43
2023-04-18T15:53:01.726Z,10.32
2023-04-18T15:55:28.785Z,11.68
2023-04-18T15:57:56.732Z,9.82
2023-04-18T16:00:24.519Z,10.75
2023-04-18T16:02:52.500Z,10.52
2023-04-18T16:05:19.710Z,10.45
2023-04-18T16:07:46.587Z,9.45
2023-04-18T16:10:15.560Z,9.48
2023-04-18T16:12:42.971Z,9.52
2023-04-18T16:15:10.669Z,10.73
2023-04-18T16:17:38.100Z,10.68
2023-04-18T16:20:09.548Z,10.45
2023-04-18T16:22:37.515Z,10.40
2023-04-18T16:25:05.567Z,10.88
2023-04-18T16:27:33.643Z,10.85
2023-04-18T16:30:00.465Z,14.25
2023-04-18T16:32:27.810Z,10.32
2023-04-18T16:34:55.198Z,9.88
2023-04-18T16:37:22.393Z,10.20
2023-04-18T16:39:49.688Z,9.80
2023-04-18T16:42:16.461Z,9.20
2023-04-18T16:44:45.652Z,9.00
2023-04-18T16:47:12.922Z,9.52
2023-04-18T16:49:39.964Z,9.77
2023-04-18T16:52:07.582Z,10.07
2023-04-18T16:54:37.324Z,9.88
2023-04-18T16:57:04.909Z,10.20
2023-04-18T16:59:31.713Z,10.15
2023-04-18T17:01:59.343Z,9.55
2023-04-18T17:04:29.392Z,9.25
2023-04-18T17:06:56.800Z,9.40
2023-04-18T17:09:23.951Z,9.45
2023-04-18T17:11:50.816Z,9.35
2023-04-18T17:14:19.205Z,10.30
2023-04-18T17:16:46.042Z,9.57
2023-04-18T17:19:13.153Z,9.60
2023-04-18T17:21:41.001Z,9.68
2023-04-18T17:24:08.579Z,9.57
2023-04-18T17:26:36.153Z,11.00
2023-04-18T17:29:04.929Z,9.07
2023-04-18T17:31:32.208Z,9.40
2023-04-18T17:34:00.207Z,9.55
2023-04-18T17:36:27.419Z,10.15
2023-04-18T17:38:54.582Z,9.85
2023-04-18T17:41:22.034Z,9.13
2023-04-18T17:43:51.197Z,10.10
2023-04-18T17:46:18.212Z,10.40
2023-04-18T17:48:45.753Z,10.77
2023-04-18T17:51:12.471Z,11.45
2023-04-18T17:53:39.706Z,10.10
2023-04-18T17:56:06.554Z,9.55
2023-04-18T17:58:33.351Z,10.10
2023-04-18T18:01:00.328Z,9.43
2023-04-18T18:03:27.723Z,10.02
2023-04-18T18:05:57.770Z,10.18
2023-04-18T18:08:24.683Z,10.10
2023-04-18T18:10:51.380Z,11.10
2023-04-18T18:13:18.392Z,10.52
2023-04-18T18:15:45.663Z,10.00
2023-04-18T18:18:12.450Z,11.00
2023-04-18T18:20:43.735Z,11.63
2023-04-18T18:23:10.857Z,11.30
2023-04-18T18:25:37.919Z,11.38
2023-04-18T18:28:05.266Z,11.15
2023-04-18T18:30:31.926Z,11.52
2023-04-18T18:32:59.464Z,11.05
2023-04-18T18:35:26.809Z,12.05
2023-04-18T18:37:54.211Z,10.95
2023-04-18T18:40:21.787Z,12.27
2023-04-18T18:42:53.505Z,11.45
2023-04-18T18:45:21.463Z,10.07
2023-04-18T18:47:48.522Z,10.68
2023-04-18T18:50:16.089Z,11.02
2023-04-18T18:52:43.413Z,11.57
2023-04-18T18:55:11.435Z,11.93
2023-04-18T18:57:38.531Z,11.40
2023-04-18T19:00:12.504Z,10.93
2023-04-18T19:02:40.288Z,11.73
2023-04-18T19:05:08.033Z,11.00
2023-04-18T19:07:35.118Z,11.35
2023-04-18T19:10:02.221Z,12.25
2023-04-18T19:12:29.740Z,11.77
2023-04-18T19:14:56.602Z,11.60
2023-04-18T19:17:25.344Z,11.23
2023-04-18T19:19:53.479Z,11.02
2023-04-18T19:22:20.387Z,12.25
2023-04-18T19:24:48.021Z,12.18
2023-04-18T19:27:15.245Z,11.57
2023-04-18T19:29:42.133Z,12.57
2023-04-18T19:32:09.416Z,12.80
2023-04-18T19:34:36.715Z,12.60
2023-04-18T19:37:04.293Z,13.38
2023-04-18T19:39:31.657Z,11.85
2023-04-18T19:41:58.795Z,12.18
2023-04-18T19:44:26.049Z,12.40
2023-04-18T19:46:53.237Z,13.10
2023-04-18T19:49:22.958Z,12.68
2023-04-18T19:51:51.603Z,12.40
2023-04-18T19:54:21.788Z,12.15
2023-04-18T19:56:49.111Z,13.10
2023-04-18T19:59:16.070Z,12.55
2023-04-18T20:01:43.106Z,11.48
2023-04-18T20:04:10.107Z,12.63
2023-04-18T20:09:21.605Z,12.38
2023-04-18T20:11:49.571Z,12.65
2023-04-18T20:14:16.275Z,12.65
2023-04-18T20:16:43.132Z,12.82
2023-04-18T20:19:12.464Z,11.93
2023-04-18T20:21:39.464Z,13.02
2023-04-18T20:24:09.778Z,12.30
2023-04-18T20:26:36.968Z,12.43
2023-04-18T20:29:04.134Z,11.80
2023-04-18T20:31:31.766Z,12.48
2023-04-18T20:34:01.710Z,13.13
2023-04-18T20:36:30.582Z,12.30
2023-04-18T20:38:57.347Z,11.48
2023-04-18T20:41:27.317Z,11.90
2023-04-18T20:43:53.925Z,12.60
2023-04-18T20:46:20.597Z,11.40
2023-04-18T20:48:47.738Z,12.00
2023-04-18T20:51:14.484Z,11.68
2023-04-18T20:53:41.600Z,12.48
2023-04-18T20:56:08.250Z,12.57
2023-04-18T20:58:34.932Z,14.20
2023-04-18T21:01:01.566Z,13.25
2023-04-18T21:03:28.464Z,12.70
2023-04-18T21:05:55.196Z,12.52
2023-04-18T21:08:21.893Z,12.35
2023-04-18T21:10:49.080Z,11.75
2023-04-18T21:13:16.202Z,12.18
2023-04-18T21:15:43.121Z,12.07
2023-04-18T21:18:11.155Z,11.88
2023-04-18T21:20:37.865Z,12.35
2023-04-18T21:23:04.492Z,13.02
2023-04-18T21:25:31.204Z,12.68
2023-04-18T21:27:57.854Z,11.90
2023-04-18T21:30:25.128Z,13.00
2023-04-18T21:32:51.981Z,12.23
2023-04-18T21:35:20.767Z,12.82
2023-04-18T21:37:48.688Z,13.02
2023-04-18T21:40:17.245Z,13.00
2023-04-18T21:42:44.725Z,12.85
2023-04-18T21:45:12.452Z,12.10
2023-04-18T21:47:40.082Z,14.70
2023-04-18T21:50:08.568Z,13.68
2023-04-18T21:55:51.095Z,13.15
2023-04-18T21:58:18.569Z,12.43
2023-04-18T22:00:46.852Z,13.40
2023-04-18T22:03:15.406Z,13.02
2023-04-18T22:05:43.353Z,13.20
2023-04-18T22:08:11.430Z,13.50
2023-04-18T22:10:40.046Z,14.00
2023-04-18T22:13:08.787Z,13.27
2023-04-18T22:15:39.532Z,12.50
2023-04-18T22:18:08.565Z,13.15
2023-04-18T22:20:39.609Z,13.38
2023-04-18T22:23:08.229Z,13.25
2023-04-18T22:25:36.550Z,12.27
2023-04-18T22:28:06.514Z,13.00
2023-04-18T22:30:33.420Z,12.95
2023-04-18T22:33:00.265Z,13.60
2023-04-18T22:35:29.046Z,12.88
2023-04-18T22:37:57.738Z,13.15
2023-04-18T22:40:28.502Z,12.95
2023-04-18T22:42:57.410Z,13.43
2023-04-18T22:45:26.356Z,13.05
2023-04-18T22:47:54.829Z,12.35
2023-04-18T22:50:21.930Z,12.65
2023-04-18T22:52:50.141Z,13.32
2023-04-18T22:55:21.047Z,12.25
2023-04-18T22:57:49.617Z,12.90
2023-04-18T23:00:17.967Z,12.57
2023-04-18T23:02:46.402Z,13.05
2023-04-18T23:05:15.674Z,13.60
2023-04-18T23:07:43.926Z,13.38
2023-04-18T23:10:12.809Z,13.23
2023-04-18T23:12:39.553Z,12.45
2023-04-18T23:15:08.271Z,13.88
2023-04-18T23:17:35.333Z,13.18
2023-04-18T23:20:03.304Z,13.38
2023-04-18T23:22:31.602Z,12.52
2023-04-18T23:24:59.980Z,12.38
2023-04-18T23:27:28.150Z,13.77
2023-04-18T23:29:56.617Z,13.90
2023-04-18T23:32:24.200Z,12.60
2023-04-18T23:34:52.275Z,13.43
2023-04-18T23:37:20.413Z,13.25
2023-04-18T23:39:48.724Z,11.65
2023-04-18T23:42:15.623Z,12.48
2023-04-18T23:44:42.866Z,12.80
2023-04-18T23:47:11.134Z,13.30
2023-04-18T23:49:38.036Z,11.07
2023-04-18T23:52:06.247Z,11.05
2023-04-18T23:54:34.136Z,11.75
2023-04-18T23:57:01.907Z,12.20
2023-04-18T23:59:30.006Z,10.63
